Allen, Kansas
Current Conditions -  °F | °C
As of 6:53 PM on Wednesday 22 Oct 2014 (Local Time) from KEMP Reporting Station
Light Rain Light Rain  
Wind Chill: 69°   Ceiling: Unl
Heat Index: 69°   Visibility: 10mi
Dew Point: 56°   Wind: 9mph
Humidity: 63%   Direction: 150°SSE
Pressure: 30.06"   Gusts: NA
Location:  38.66°N, 96.17°W
Report Text: KEMP 222353Z AUTO 15008KT 10SM -RA FEW060 21/13 A3006 RMK AO2 SLP179 P0000 60000 T02060133 10256 20206 53001
Loading
Personal Weather Stations






























Interactive Weather Map
Tropical Storm Tracking
New forecast layout! Learn more

10-Day Weather Forecast

Advertisements
Track Severe Weather on mobile